sensor_id;sensor_type;location;lat;lon;timestamp;pressure;altitude;pressure_sealevel;temperature
13497;BMP180;6820;49.374;8.452;2023-07-20T00:03:11;100331.97;;;28.36
13497;BMP180;6820;49.374;8.452;2023-07-20T00:07:38;100336.53;;;28.17
13497;BMP180;6820;49.374;8.452;2023-07-20T00:11:47;100344.44;;;28.10
13497;BMP180;6820;49.374;8.452;2023-07-20T00:15:54;100344.38;;;28.12
13497;BMP180;6820;49.374;8.452;2023-07-20T00:19:59;100346.16;;;28.07
13497;BMP180;6820;49.374;8.452;2023-07-20T00:24:05;100349.72;;;28.00
13497;BMP180;6820;49.374;8.452;2023-07-20T00:28:07;100352.38;;;27.95
13497;BMP180;6820;49.374;8.452;2023-07-20T00:32:20;100350.63;;;27.99
13497;BMP180;6820;49.374;8.452;2023-07-20T00:36:24;100351.50;;;27.96
13497;BMP180;6820;49.374;8.452;2023-07-20T00:40:38;100355.00;;;27.89
13497;BMP180;6820;49.374;8.452;2023-07-20T00:44:40;100355.06;;;27.84
13497;BMP180;6820;49.374;8.452;2023-07-20T00:48:45;100346.47;;;27.73
13497;BMP180;6820;49.374;8.452;2023-07-20T00:52:50;100349.97;;;27.69
13497;BMP180;6820;49.374;8.452;2023-07-20T00:57:04;100351.75;;;27.62
13497;BMP180;6820;49.374;8.452;2023-07-20T01:01:17;100352.69;;;27.53
13497;BMP180;6820;49.374;8.452;2023-07-20T01:09:48;100356.31;;;27.35
13497;BMP180;6820;49.374;8.452;2023-07-20T01:13:56;100364.13;;;27.28
13497;BMP180;6820;49.374;8.452;2023-07-20T01:17:58;100365.88;;;27.23
13497;BMP180;6820;49.374;8.452;2023-07-20T01:35:27;100349.38;;;27.27
13497;BMP180;6820;49.374;8.452;2023-07-20T01:39:31;100348.59;;;27.16
13497;BMP180;6820;49.374;8.452;2023-07-20T01:43:34;100342.56;;;27.08
13497;BMP180;6820;49.374;8.452;2023-07-20T01:47:41;100338.22;;;27.07
13497;BMP180;6820;49.374;8.452;2023-07-20T01:51:48;100343.47;;;27.03
13497;BMP180;6820;49.374;8.452;2023-07-20T01:55:57;100355.69;;;26.88
13497;BMP180;6820;49.374;8.452;2023-07-20T02:00:07;100345.34;;;26.74
13497;BMP180;6820;49.374;8.452;2023-07-20T02:04:19;100351.38;;;26.69
13497;BMP180;6820;49.374;8.452;2023-07-20T02:08:24;100351.41;;;26.63
13497;BMP180;6820;49.374;8.452;2023-07-20T02:12:32;100354.88;;;26.59
13497;BMP180;6820;49.374;8.452;2023-07-20T02:16:37;100345.38;;;26.54
13497;BMP180;6820;49.374;8.452;2023-07-20T02:20:41;100354.91;;;26.50
13497;BMP180;6820;49.374;8.452;2023-07-20T02:24:47;100347.97;;;26.46
13497;BMP180;6820;49.374;8.452;2023-07-20T02:28:58;100351.47;;;26.42
13497;BMP180;6820;49.374;8.452;2023-07-20T02:33:09;100354.91;;;26.49
13497;BMP180;6820;49.374;8.452;2023-07-20T02:37:21;100350.53;;;26.62
13497;BMP180;6820;49.374;8.452;2023-07-20T02:41:26;100347.03;;;26.69
13497;BMP180;6820;49.374;8.452;2023-07-20T02:45:31;100370.44;;;26.75
13497;BMP180;6820;49.374;8.452;2023-07-20T02:49:35;100355.72;;;26.77
13497;BMP180;6820;49.374;8.452;2023-07-20T02:53:38;100357.44;;;26.78
13497;BMP180;6820;49.374;8.452;2023-07-20T02:57:40;100359.19;;;26.73
13497;BMP180;6820;49.374;8.452;2023-07-20T03:01:49;100369.59;;;26.69
13497;BMP180;6820;49.374;8.452;2023-07-20T03:05:54;100366.97;;;26.72
13497;BMP180;6820;49.374;8.452;2023-07-20T03:10:27;100352.22;;;26.72
13497;BMP180;6820;49.374;8.452;2023-07-20T03:14:35;100354.84;;;26.71
13497;BMP180;6820;49.374;8.452;2023-07-20T03:18:41;100355.69;;;26.70
13497;BMP180;6820;49.374;8.452;2023-07-20T03:22:51;100367.88;;;26.66
13497;BMP180;6820;49.374;8.452;2023-07-20T03:26:55;100368.72;;;26.64
13497;BMP180;6820;49.374;8.452;2023-07-20T03:31:00;100378.25;;;26.65
13497;BMP180;6820;49.374;8.452;2023-07-20T03:35:13;100385.19;;;26.62
13497;BMP180;6820;49.374;8.452;2023-07-20T03:39:23;100394.75;;;26.57
13497;BMP180;6820;49.374;8.452;2023-07-20T03:43:28;100393.03;;;26.53
13497;BMP180;6820;49.374;8.452;2023-07-20T03:51:33;100399.09;;;26.49
13497;BMP180;6820;49.374;8.452;2023-07-20T03:56:01;100408.63;;;26.48
13497;BMP180;6820;49.374;8.452;2023-07-20T04:00:10;100400.84;;;26.44
13497;BMP180;6820;49.374;8.452;2023-07-20T04:04:24;100399.13;;;26.43
13497;BMP180;6820;49.374;8.452;2023-07-20T04:08:30;100396.50;;;26.41
13497;BMP180;6820;49.374;8.452;2023-07-20T04:12:35;100408.66;;;26.39
13497;BMP180;6820;49.374;8.452;2023-07-20T04:16:40;100401.72;;;26.38
13497;BMP180;6820;49.374;8.452;2023-07-20T04:20:45;100406.91;;;26.41
13497;BMP180;6820;49.374;8.452;2023-07-20T04:24:52;100410.41;;;26.42
13497;BMP180;6820;49.374;8.452;2023-07-20T04:28:57;100406.06;;;26.42
13497;BMP180;6820;49.374;8.452;2023-07-20T04:33:09;100416.44;;;26.45
13497;BMP180;6820;49.374;8.452;2023-07-20T04:37:15;100411.22;;;26.57
13497;BMP180;6820;49.374;8.452;2023-07-20T04:41:23;100412.03;;;26.72
13497;BMP180;6820;49.374;8.452;2023-07-20T04:45:31;100414.69;;;26.74
13497;BMP180;6820;49.374;8.452;2023-07-20T04:49:37;100404.25;;;26.71
13497;BMP180;6820;49.374;8.452;2023-07-20T04:53:39;100407.72;;;26.68
13497;BMP180;6820;49.374;8.452;2023-07-20T04:57:47;100405.13;;;26.64
13497;BMP180;6820;49.374;8.452;2023-07-20T05:01:51;100406.91;;;26.58
13497;BMP180;6820;49.374;8.452;2023-07-20T05:05:57;100411.22;;;26.59
13497;BMP180;6820;49.374;8.452;2023-07-20T05:10:10;100411.22;;;26.62
13497;BMP180;6820;49.374;8.452;2023-07-20T05:14:20;100401.69;;;26.63
13497;BMP180;6820;49.374;8.452;2023-07-20T05:18:26;100402.53;;;26.64
13497;BMP180;6820;49.374;8.452;2023-07-20T05:22:31;100402.53;;;26.65
13497;BMP180;6820;49.374;8.452;2023-07-20T05:26:41;100417.25;;;26.66
13497;BMP180;6820;49.374;8.452;2023-07-20T05:30:53;100418.13;;;26.67
13497;BMP180;6820;49.374;8.452;2023-07-20T05:35:01;100427.66;;;26.62
13497;BMP180;6820;49.374;8.452;2023-07-20T05:39:09;100420.72;;;26.67
13497;BMP180;6820;49.374;8.452;2023-07-20T05:43:14;100426.81;;;26.66
13497;BMP180;6820;49.374;8.452;2023-07-20T05:47:18;100419.88;;;26.66
13497;BMP180;6820;49.374;8.452;2023-07-20T05:51:24;100415.50;;;26.70
13497;BMP180;6820;49.374;8.452;2023-07-20T05:55:28;100419.88;;;26.71
13497;BMP180;6820;49.374;8.452;2023-07-20T05:59:37;100413.78;;;26.69
13497;BMP180;6820;49.374;8.452;2023-07-20T06:03:40;100422.47;;;26.80
13497;BMP180;6820;49.374;8.452;2023-07-20T06:07:50;100418.94;;;26.91
13497;BMP180;6820;49.374;8.452;2023-07-20T06:11:58;100424.03;;;27.15
13497;BMP180;6820;49.374;8.452;2023-07-20T06:16:10;100422.13;;;27.56
13497;BMP180;6820;49.374;8.452;2023-07-20T06:20:11;100417.44;;;28.01
13497;BMP180;6820;49.374;8.452;2023-07-20T06:24:29;100415.44;;;28.34
13497;BMP180;6820;49.374;8.452;2023-07-20T06:28:35;100418.69;;;28.57
13497;BMP180;6820;49.374;8.452;2023-07-20T06:32:44;100413.53;;;28.48
13497;BMP180;6820;49.374;8.452;2023-07-20T06:36:49;100412.88;;;28.28
13497;BMP180;6820;49.374;8.452;2023-07-20T06:40:53;100413.53;;;28.47
13497;BMP180;6820;49.374;8.452;2023-07-20T06:45:13;100413.25;;;28.79
13497;BMP180;6820;49.374;8.452;2023-07-20T06:49:30;100414.84;;;28.90
13497;BMP180;6820;49.374;8.452;2023-07-20T06:53:34;100411.41;;;28.84
13497;BMP180;6820;49.374;8.452;2023-07-20T06:57:36;100417.88;;;28.53
13497;BMP180;6820;49.374;8.452;2023-07-20T07:01:38;100414.53;;;28.35
13497;BMP180;6820;49.374;8.452;2023-07-20T07:05:40;100418.16;;;28.21
13497;BMP180;6820;49.374;8.452;2023-07-20T07:09:43;100422.56;;;28.13
13497;BMP180;6820;49.374;8.452;2023-07-20T07:13:45;100413.91;;;28.11
13497;BMP180;6820;49.374;8.452;2023-07-20T07:17:51;100415.59;;;28.18
13497;BMP180;6820;49.374;8.452;2023-07-20T07:21:59;100412.88;;;28.28
13497;BMP180;6820;49.374;8.452;2023-07-20T07:26:05;100423.34;;;28.22
13497;BMP180;6820;49.374;8.452;2023-07-20T07:30:13;100414.72;;;28.17
13497;BMP180;6820;49.374;8.452;2023-07-20T07:34:16;100412.63;;;28.58
13497;BMP180;6820;49.374;8.452;2023-07-20T07:38:21;100412.31;;;28.83
13497;BMP180;6820;49.374;8.452;2023-07-20T07:42:43;100411.34;;;28.91
13497;BMP180;6820;49.374;8.452;2023-07-20T07:46:45;100406.88;;;29.01
13497;BMP180;6820;49.374;8.452;2023-07-20T07:50:47;100417.22;;;29.10
13497;BMP180;6820;49.374;8.452;2023-07-20T07:54:51;100413.72;;;29.12
13497;BMP180;6820;49.374;8.452;2023-07-20T07:58:57;100416.28;;;29.15
13497;BMP180;6820;49.374;8.452;2023-07-20T08:03:10;100407.56;;;29.17
13497;BMP180;6820;49.374;8.452;2023-07-20T08:07:13;100411.13;;;29.10
13497;BMP180;6820;49.374;8.452;2023-07-20T08:11:19;100408.56;;;29.06
13497;BMP180;6820;49.374;8.452;2023-07-20T08:15:24;100415.44;;;29.13
13497;BMP180;6820;49.374;8.452;2023-07-20T08:19:35;100409.41;;;29.05
13497;BMP180;6820;49.374;8.452;2023-07-20T08:23:42;100405.75;;;29.22
13497;BMP180;6820;49.374;8.452;2023-07-20T08:27:44;100406.97;;;29.59
13497;BMP180;6820;49.374;8.452;2023-07-20T08:31:52;100403.88;;;29.90
13497;BMP180;6820;49.374;8.452;2023-07-20T08:35:58;100400.94;;;30.09
13497;BMP180;6820;49.374;8.452;2023-07-20T08:40:05;100414.97;;;30.05
13497;BMP180;6820;49.374;8.452;2023-07-20T08:44:16;100403.88;;;29.90
13497;BMP180;6820;49.374;8.452;2023-07-20T08:48:24;100406.31;;;30.02
13497;BMP180;6820;49.374;8.452;2023-07-20T08:52:34;100405.47;;;30.00
13497;BMP180;6820;49.374;8.452;2023-07-20T08:56:36;100405.19;;;30.14
13497;BMP180;6820;49.374;8.452;2023-07-20T09:00:42;100403.66;;;30.03
13497;BMP180;6820;49.374;8.452;2023-07-20T09:04:48;100406.50;;;29.90
13497;BMP180;6820;49.374;8.452;2023-07-20T09:09:01;100398.00;;;29.77
13497;BMP180;6820;49.374;8.452;2023-07-20T09:13:15;100397.91;;;29.82
13497;BMP180;6820;49.374;8.452;2023-07-20T09:17:20;100399.75;;;30.28
13497;BMP180;6820;49.374;8.452;2023-07-20T09:21:32;100397.63;;;30.49
13497;BMP180;6820;49.374;8.452;2023-07-20T09:25:38;100393.16;;;30.55
13497;BMP180;6820;49.374;8.452;2023-07-20T09:29:55;100397.03;;;30.80
13497;BMP180;6820;49.374;8.452;2023-07-20T09:34:04;100395.88;;;30.94
13497;BMP180;6820;49.374;8.452;2023-07-20T09:38:35;100388.06;;;30.91
13497;BMP180;6820;49.374;8.452;2023-07-20T09:42:49;100390.56;;;30.97
13497;BMP180;6820;49.374;8.452;2023-07-20T09:46:59;100387.38;;;31.25
13497;BMP180;6820;49.374;8.452;2023-07-20T09:51:09;100386.38;;;31.68
13497;BMP180;6820;49.374;8.452;2023-07-20T09:55:12;100375.09;;;32.00
13497;BMP180;6820;49.374;8.452;2023-07-20T09:59:18;100374.94;;;32.06
13497;BMP180;6820;49.374;8.452;2023-07-20T10:03:21;100378.94;;;32.20
13497;BMP180;6820;49.374;8.452;2023-07-20T10:07:27;100376.59;;;32.09
13497;BMP180;6820;49.374;8.452;2023-07-20T10:11:37;100368.34;;;32.25
13497;BMP180;6820;49.374;8.452;2023-07-20T10:15:46;100361.78;;;32.41
13497;BMP180;6820;49.374;8.452;2023-07-20T10:19:51;100353.88;;;32.42
13497;BMP180;6820;49.374;8.452;2023-07-20T10:24:01;100351.53;;;32.32
13497;BMP180;6820;49.374;8.452;2023-07-20T10:28:16;100351.56;;;32.62
13497;BMP180;6820;49.374;8.452;2023-07-20T10:32:23;100349.41;;;32.77
13497;BMP180;6820;49.374;8.452;2023-07-20T10:36:32;100338.31;;;32.96
13497;BMP180;6820;49.374;8.452;2023-07-20T10:40:41;100336.44;;;32.70
13497;BMP180;6820;49.374;8.452;2023-07-20T10:44:52;100346.00;;;32.72
13497;BMP180;6820;49.374;8.452;2023-07-20T10:49:05;100323.38;;;32.68
13497;BMP180;6820;49.374;8.452;2023-07-20T10:53:13;100320.31;;;32.84
13497;BMP180;6820;49.374;8.452;2023-07-20T10:57:28;100320.22;;;33.16
13497;BMP180;6820;49.374;8.452;2023-07-20T11:01:36;100307.09;;;33.43
13497;BMP180;6820;49.374;8.452;2023-07-20T11:05:39;100314.25;;;33.64
13497;BMP180;6820;49.374;8.452;2023-07-20T11:09:42;100311.88;;;33.83
13497;BMP180;6820;49.374;8.452;2023-07-20T11:14:00;100316.31;;;33.81
13497;BMP180;6820;49.374;8.452;2023-07-20T11:18:12;100301.81;;;33.69
13497;BMP180;6820;49.374;8.452;2023-07-20T11:22:16;100300.94;;;33.43
13497;BMP180;6820;49.374;8.452;2023-07-20T11:26:19;100303.41;;;33.21
13497;BMP180;6820;49.374;8.452;2023-07-20T11:30:20;100299.88;;;32.94
13497;BMP180;6820;49.374;8.452;2023-07-20T11:34:22;100297.81;;;32.76
13497;BMP180;6820;49.374;8.452;2023-07-20T11:38:24;100299.78;;;32.67
13497;BMP180;6820;49.374;8.452;2023-07-20T11:42:25;100296.31;;;32.66
13497;BMP180;6820;49.374;8.452;2023-07-20T11:46:30;100275.28;;;32.96
13497;BMP180;6820;49.374;8.452;2023-07-20T11:50:32;100272.03;;;33.15
13497;BMP180;6820;49.374;8.452;2023-07-20T11:54:40;100272.75;;;33.20
13497;BMP180;6820;49.374;8.452;2023-07-20T11:58:46;100269.16;;;33.24
13497;BMP180;6820;49.374;8.452;2023-07-20T12:02:48;100265.94;;;33.42
13497;BMP180;6820;49.374;8.452;2023-07-20T12:06:53;100251.38;;;33.58
13497;BMP180;6820;49.374;8.452;2023-07-20T12:11:02;100249.13;;;33.73
13497;BMP180;6820;49.374;8.452;2023-07-20T12:15:20;100247.44;;;33.71
13497;BMP180;6820;49.374;8.452;2023-07-20T12:19:25;100245.91;;;33.64
13497;BMP180;6820;49.374;8.452;2023-07-20T12:23:26;100245.75;;;33.68
13497;BMP180;6820;49.374;8.452;2023-07-20T12:27:31;100241.16;;;33.75
13497;BMP180;6820;49.374;8.452;2023-07-20T12:31:36;100238.50;;;34.00
13497;BMP180;6820;49.374;8.452;2023-07-20T12:35:38;100232.28;;;34.03
13497;BMP180;6820;49.374;8.452;2023-07-20T12:39:39;100233.84;;;33.84
13497;BMP180;6820;49.374;8.452;2023-07-20T12:43:43;100231.97;;;33.62
13497;BMP180;6820;49.374;8.452;2023-07-20T12:47:45;100227.28;;;33.45
13497;BMP180;6820;49.374;8.452;2023-07-20T12:51:47;100223.72;;;33.48
13497;BMP180;6820;49.374;8.452;2023-07-20T12:55:49;100229.81;;;33.48
13497;BMP180;6820;49.374;8.452;2023-07-20T12:59:51;100226.00;;;33.82
13497;BMP180;6820;49.374;8.452;2023-07-20T13:03:52;100199.84;;;34.49
13497;BMP180;6820;49.374;8.452;2023-07-20T13:07:58;100196.78;;;34.59
13497;BMP180;6820;49.374;8.452;2023-07-20T13:12:03;100191.25;;;34.44
13497;BMP180;6820;49.374;8.452;2023-07-20T13:16:05;100192.13;;;34.44
13497;BMP180;6820;49.374;8.452;2023-07-20T13:20:08;100181.06;;;34.35
13497;BMP180;6820;49.374;8.452;2023-07-20T13:24:11;100191.97;;;34.26
13497;BMP180;6820;49.374;8.452;2023-07-20T13:28:13;100192.19;;;34.20
13497;BMP180;6820;49.374;8.452;2023-07-20T13:32:15;100181.06;;;35.01
13497;BMP180;6820;49.374;8.452;2023-07-20T13:36:22;100172.03;;;35.69
13497;BMP180;6820;49.374;8.452;2023-07-20T13:40:27;100158.81;;;36.08
13497;BMP180;6820;49.374;8.452;2023-07-20T13:44:35;100159.50;;;36.68
13497;BMP180;6820;49.374;8.452;2023-07-20T13:48:47;100156.66;;;37.07
13497;BMP180;6820;49.374;8.452;2023-07-20T13:52:59;100149.09;;;37.00
13497;BMP180;6820;49.374;8.452;2023-07-20T13:57:07;100143.56;;;36.87
13497;BMP180;6820;49.374;8.452;2023-07-20T14:01:15;100143.91;;;36.80
13497;BMP180;6820;49.374;8.452;2023-07-20T14:05:27;100137.50;;;36.49
13497;BMP180;6820;49.374;8.452;2023-07-20T14:09:44;100141.94;;;36.12
13497;BMP180;6820;49.374;8.452;2023-07-20T14:13:55;100140.75;;;35.62
13497;BMP180;6820;49.374;8.452;2023-07-20T14:18:00;100135.88;;;35.51
13497;BMP180;6820;49.374;8.452;2023-07-20T14:22:11;100144.78;;;35.49
13497;BMP180;6820;49.374;8.452;2023-07-20T14:26:17;100128.03;;;35.50
13497;BMP180;6820;49.374;8.452;2023-07-20T14:30:26;100126.25;;;35.50
13497;BMP180;6820;49.374;8.452;2023-07-20T14:34:28;100121.38;;;35.41
13497;BMP180;6820;49.374;8.452;2023-07-20T14:38:31;100109.72;;;35.27
13497;BMP180;6820;49.374;8.452;2023-07-20T14:42:36;100123.09;;;35.01
13497;BMP180;6820;49.374;8.452;2023-07-20T14:46:41;100119.44;;;34.84
13497;BMP180;6820;49.374;8.452;2023-07-20T14:50:59;100114.09;;;34.86
13497;BMP180;6820;49.374;8.452;2023-07-20T14:55:09;100102.31;;;35.74
13497;BMP180;6820;49.374;8.452;2023-07-20T14:59:16;100102.78;;;36.58
13497;BMP180;6820;49.374;8.452;2023-07-20T15:03:19;100086.88;;;37.11
13497;BMP180;6820;49.374;8.452;2023-07-20T15:07:28;100092.16;;;37.45
13497;BMP180;6820;49.374;8.452;2023-07-20T15:11:38;100087.56;;;37.65
13497;BMP180;6820;49.374;8.452;2023-07-20T15:15:41;100087.53;;;37.81
13497;BMP180;6820;49.374;8.452;2023-07-20T15:19:50;100088.81;;;37.90
13497;BMP180;6820;49.374;8.452;2023-07-20T15:23:59;100071.59;;;37.98
13497;BMP180;6820;49.374;8.452;2023-07-20T15:28:04;100072.72;;;37.94
13497;BMP180;6820;49.374;8.452;2023-07-20T15:32:06;100070.16;;;37.44
13497;BMP180;6820;49.374;8.452;2023-07-20T15:36:11;100067.97;;;37.35
13497;BMP180;6820;49.374;8.452;2023-07-20T15:40:13;100049.84;;;37.77
13497;BMP180;6820;49.374;8.452;2023-07-20T15:44:15;100048.22;;;37.42
13497;BMP180;6820;49.374;8.452;2023-07-20T15:48:16;100060.38;;;36.61
13497;BMP180;6820;49.374;8.452;2023-07-20T15:52:18;100053.19;;;36.28
13497;BMP180;6820;49.374;8.452;2023-07-20T15:56:20;100047.00;;;36.46
13497;BMP180;6820;49.374;8.452;2023-07-20T16:00:22;100038.44;;;36.59
13497;BMP180;6820;49.374;8.452;2023-07-20T16:04:24;100037.34;;;36.98
13497;BMP180;6820;49.374;8.452;2023-07-20T16:08:26;100031.22;;;36.62
13497;BMP180;6820;49.374;8.452;2023-07-20T16:12:28;100034.63;;;36.29
13497;BMP180;6820;49.374;8.452;2023-07-20T16:16:34;100025.19;;;36.42
13497;BMP180;6820;49.374;8.452;2023-07-20T16:20:36;100035.03;;;36.57
13497;BMP180;6820;49.374;8.452;2023-07-20T16:24:38;100028.22;;;36.17
13497;BMP180;6820;49.374;8.452;2023-07-20T16:28:40;100023.34;;;35.90
13497;BMP180;6820;49.374;8.452;2023-07-20T16:32:42;100023.94;;;35.96
13497;BMP180;6820;49.374;8.452;2023-07-20T16:36:45;100023.78;;;36.17
13497;BMP180;6820;49.374;8.452;2023-07-20T16:40:50;100021.28;;;36.51
13497;BMP180;6820;49.374;8.452;2023-07-20T16:44:57;100024.19;;;36.63
13497;BMP180;6820;49.374;8.452;2023-07-20T16:49:02;100017.88;;;36.65
13497;BMP180;6820;49.374;8.452;2023-07-20T16:53:06;100016.00;;;36.67
13497;BMP180;6820;49.374;8.452;2023-07-20T16:57:11;100009.97;;;36.65
13497;BMP180;6820;49.374;8.452;2023-07-20T17:01:17;100009.72;;;36.35
13497;BMP180;6820;49.374;8.452;2023-07-20T17:05:25;99998.41;;;35.96
13497;BMP180;6820;49.374;8.452;2023-07-20T17:09:27;100001.19;;;35.75
13497;BMP180;6820;49.374;8.452;2023-07-20T17:13:29;99992.66;;;35.51
13497;BMP180;6820;49.374;8.452;2023-07-20T17:17:35;100004.06;;;35.31
13497;BMP180;6820;49.374;8.452;2023-07-20T17:21:38;100004.03;;;35.13
13497;BMP180;6820;49.374;8.452;2023-07-20T17:25:44;100008.44;;;34.93
13497;BMP180;6820;49.374;8.452;2023-07-20T17:29:49;100012.81;;;34.73
13497;BMP180;6820;49.374;8.452;2023-07-20T17:33:51;99996.72;;;34.59
13497;BMP180;6820;49.374;8.452;2023-07-20T17:37:53;100005.03;;;34.49
13497;BMP180;6820;49.374;8.452;2023-07-20T17:41:57;99999.06;;;34.45
13497;BMP180;6820;49.374;8.452;2023-07-20T17:45:59;100001.72;;;34.44
13497;BMP180;6820;49.374;8.452;2023-07-20T17:50:05;99998.38;;;34.40
13497;BMP180;6820;49.374;8.452;2023-07-20T17:54:07;100004.03;;;34.32
13497;BMP180;6820;49.374;8.452;2023-07-20T17:58:09;100009.59;;;34.24
13497;BMP180;6820;49.374;8.452;2023-07-20T18:02:11;100002.84;;;34.17
13497;BMP180;6820;49.374;8.452;2023-07-20T18:06:12;100005.78;;;34.10
13497;BMP180;6820;49.374;8.452;2023-07-20T18:10:14;100007.88;;;34.01
13497;BMP180;6820;49.374;8.452;2023-07-20T18:14:16;100010.94;;;33.90
13497;BMP180;6820;49.374;8.452;2023-07-20T18:18:18;100014.03;;;33.78
13497;BMP180;6820;49.374;8.452;2023-07-20T18:22:19;100001.97;;;33.73
13497;BMP180;6820;49.374;8.452;2023-07-20T18:26:21;100004.94;;;33.64
13497;BMP180;6820;49.374;8.452;2023-07-20T18:30:23;100006.19;;;33.54
13497;BMP180;6820;49.374;8.452;2023-07-20T18:34:26;100000.16;;;33.28
13497;BMP180;6820;49.374;8.452;2023-07-20T18:38:28;100012.88;;;33.16
13497;BMP180;6820;49.374;8.452;2023-07-20T18:42:30;100020.91;;;33.12
13497;BMP180;6820;49.374;8.452;2023-07-20T18:46:31;100010.75;;;33.01
13497;BMP180;6820;49.374;8.452;2023-07-20T18:50:33;100018.03;;;32.93
13497;BMP180;6820;49.374;8.452;2023-07-20T18:54:35;100012.34;;;32.81
13497;BMP180;6820;49.374;8.452;2023-07-20T18:58:37;100007.59;;;32.66
13497;BMP180;6820;49.374;8.452;2023-07-20T19:02:39;100016.56;;;32.59
13497;BMP180;6820;49.374;8.452;2023-07-20T19:06:41;100013.34;;;32.51
13497;BMP180;6820;49.374;8.452;2023-07-20T19:10:43;100009.84;;;32.51
13497;BMP180;6820;49.374;8.452;2023-07-20T19:14:48;100010.91;;;32.46
13497;BMP180;6820;49.374;8.452;2023-07-20T19:18:49;100017.44;;;32.33
13497;BMP180;6820;49.374;8.452;2023-07-20T19:22:51;100014.28;;;32.22
13497;BMP180;6820;49.374;8.452;2023-07-20T19:26:53;100017.91;;;32.18
13497;BMP180;6820;49.374;8.452;2023-07-20T19:30:55;100024.97;;;32.16
13497;BMP180;6820;49.374;8.452;2023-07-20T19:34:56;100007.66;;;32.11
13497;BMP180;6820;49.374;8.452;2023-07-20T19:39:01;100024.34;;;32.08
13497;BMP180;6820;49.374;8.452;2023-07-20T19:43:03;100037.94;;;31.93
13497;BMP180;6820;49.374;8.452;2023-07-20T19:47:05;100044.34;;;31.84
13497;BMP180;6820;49.374;8.452;2023-07-20T19:51:07;100044.63;;;31.75
13497;BMP180;6820;49.374;8.452;2023-07-20T19:55:09;100043.00;;;31.69
13497;BMP180;6820;49.374;8.452;2023-07-20T19:59:11;100041.72;;;31.54
13497;BMP180;6820;49.374;8.452;2023-07-20T20:03:14;100049.88;;;31.43
13497;BMP180;6820;49.374;8.452;2023-07-20T20:07:18;100054.31;;;31.40
13497;BMP180;6820;49.374;8.452;2023-07-20T20:11:20;100044.22;;;31.27
13497;BMP180;6820;49.374;8.452;2023-07-20T20:15:25;100039.91;;;31.26
13497;BMP180;6820;49.374;8.452;2023-07-20T20:19:28;100040.75;;;31.26
13497;BMP180;6820;49.374;8.452;2023-07-20T20:23:29;100035.44;;;31.29
13497;BMP180;6820;49.374;8.452;2023-07-20T20:27:31;100044.94;;;31.33
13497;BMP180;6820;49.374;8.452;2023-07-20T20:31:33;100033.72;;;31.28
13497;BMP180;6820;49.374;8.452;2023-07-20T20:35:35;100038.25;;;31.22
13497;BMP180;6820;49.374;8.452;2023-07-20T20:39:36;100042.84;;;31.12
13497;BMP180;6820;49.374;8.452;2023-07-20T20:43:38;100039.78;;;30.97
13497;BMP180;6820;49.374;8.452;2023-07-20T20:47:40;100043.63;;;30.84
13497;BMP180;6820;49.374;8.452;2023-07-20T20:51:42;100042.03;;;30.79
13497;BMP180;6820;49.374;8.452;2023-07-20T20:55:43;100040.22;;;30.81
13497;BMP180;6820;49.374;8.452;2023-07-20T20:59:45;100041.03;;;30.84
13497;BMP180;6820;49.374;8.452;2023-07-20T21:03:49;100043.69;;;30.81
13497;BMP180;6820;49.374;8.452;2023-07-20T21:07:51;100047.31;;;30.76
13497;BMP180;6820;49.374;8.452;2023-07-20T21:11:53;100036.06;;;30.72
13497;BMP180;6820;49.374;8.452;2023-07-20T21:15:55;100027.34;;;30.73
13497;BMP180;6820;49.374;8.452;2023-07-20T21:19:56;100033.44;;;30.74
13497;BMP180;6820;49.374;8.452;2023-07-20T21:23:58;100027.25;;;30.76
13497;BMP180;6820;49.374;8.452;2023-07-20T21:28:00;100030.00;;;30.72
13497;BMP180;6820;49.374;8.452;2023-07-20T21:32:01;100030.97;;;30.66
13497;BMP180;6820;49.374;8.452;2023-07-20T21:36:04;100039.84;;;30.60
13497;BMP180;6820;49.374;8.452;2023-07-20T21:40:07;100037.66;;;30.43
13497;BMP180;6820;49.374;8.452;2023-07-20T21:44:09;100031.03;;;30.29
13497;BMP180;6820;49.374;8.452;2023-07-20T21:48:10;100029.44;;;30.22
13497;BMP180;6820;49.374;8.452;2023-07-20T21:52:13;100023.69;;;30.07
13497;BMP180;6820;49.374;8.452;2023-07-20T21:56:15;100024.63;;;30.04
13497;BMP180;6820;49.374;8.452;2023-07-20T22:00:16;100034.25;;;30.02
13497;BMP180;6820;49.374;8.452;2023-07-20T22:04:20;100033.31;;;30.05
13497;BMP180;6820;49.374;8.452;2023-07-20T22:08:22;100039.53;;;30.00
13497;BMP180;6820;49.374;8.452;2023-07-20T22:12:24;100030.94;;;29.95
13497;BMP180;6820;49.374;8.452;2023-07-20T22:16:26;100039.78;;;29.88
13497;BMP180;6820;49.374;8.452;2023-07-20T22:20:28;100034.69;;;29.82
13497;BMP180;6820;49.374;8.452;2023-07-20T22:24:31;100040.91;;;29.76
13497;BMP180;6820;49.374;8.452;2023-07-20T22:28:33;100042.69;;;29.76
13497;BMP180;6820;49.374;8.452;2023-07-20T22:32:35;100034.13;;;29.70
13497;BMP180;6820;49.374;8.452;2023-07-20T22:36:37;100032.50;;;29.64
13497;BMP180;6820;49.374;8.452;2023-07-20T22:40:39;100039.53;;;29.59
13497;BMP180;6820;49.374;8.452;2023-07-20T22:44:41;100024.78;;;29.55
13497;BMP180;6820;49.374;8.452;2023-07-20T22:48:43;100023.91;;;29.56
13497;BMP180;6820;49.374;8.452;2023-07-20T22:52:44;100020.38;;;29.59
13497;BMP180;6820;49.374;8.452;2023-07-20T22:56:47;100029.94;;;29.58
13497;BMP180;6820;49.374;8.452;2023-07-20T23:00:48;100033.59;;;29.51
13497;BMP180;6820;49.374;8.452;2023-07-20T23:04:51;100044.19;;;29.42
13497;BMP180;6820;49.374;8.452;2023-07-20T23:08:54;100039.09;;;29.37
13497;BMP180;6820;49.374;8.452;2023-07-20T23:12:56;100046.88;;;29.40
13497;BMP180;6820;49.374;8.452;2023-07-20T23:16:58;100044.19;;;29.42
13497;BMP180;6820;49.374;8.452;2023-07-20T23:21:01;100033.81;;;29.41
13497;BMP180;6820;49.374;8.452;2023-07-20T23:25:04;100034.69;;;29.40
13497;BMP180;6820;49.374;8.452;2023-07-20T23:29:08;100026.19;;;29.29
13497;BMP180;6820;49.374;8.452;2023-07-20T23:33:10;100030.81;;;29.15
13497;BMP180;6820;49.374;8.452;2023-07-20T23:37:11;100020.56;;;29.07
13497;BMP180;6820;49.374;8.452;2023-07-20T23:41:13;100024.06;;;29.04
13497;BMP180;6820;49.374;8.452;2023-07-20T23:45:15;100023.34;;;28.96
13497;BMP180;6820;49.374;8.452;2023-07-20T23:49:17;100019.88;;;28.94
13497;BMP180;6820;49.374;8.452;2023-07-20T23:53:19;100023.50;;;28.87
13497;BMP180;6820;49.374;8.452;2023-07-20T23:57:20;100036.63;;;28.84
